Time;durP1;ratioP1;P1;durP2;ratioP2;P2;SDS_P1;SDS_P2;PMS_P1;PMS_P2;Temp;Humidity;BMP_temperature;BMP_pressure;BME280_temperature;BME280_humidity;BME280_pressure;Samples;Min_cycle;Max_cycle;Signal;HPM_P1;HPM_P2
2022/10/06 00:00:34;;;;;;;;;;;20.00;99.70;;;;;;5055971;28;19954;-90
2022/10/06 00:02:59;;;;;;;;;;;20.00;99.80;;;;;;5057107;28;19975;-91
2022/10/06 00:05:25;;;;;;;;;;;19.90;99.80;;;;;;5056235;28;20234;-91
2022/10/06 00:07:51;;;;;;;;;;;19.90;99.80;;;;;;5055872;28;20278;-91
2022/10/06 00:10:19;;;;;;;;;;;19.90;99.80;;;;;;5056278;28;19920;-92
2022/10/06 00:12:46;;;;;;;;;;;19.90;99.80;;;;;;5055361;28;19908;-91
2022/10/06 00:15:16;;;;;;;;;;;19.90;99.80;;;;;;5055768;28;19932;-91
2022/10/06 00:17:42;;;;;;;;;;;19.90;99.90;;;;;;5057084;28;19920;-90
2022/10/06 00:20:08;;;;;;;;;;;19.90;99.90;;;;;;5056523;28;20352;-91
2022/10/06 00:22:39;;;;;;;;;;;19.80;99.90;;;;;;5056883;28;20202;-91
2022/10/06 00:25:05;;;;;;;;;;;19.80;99.90;;;;;;5054832;28;20194;-91
2022/10/06 00:27:37;;;;;;;;;;;19.80;99.90;;;;;;5055594;28;19917;-91
2022/10/06 00:30:04;;;;;;;;;;;19.80;99.90;;;;;;5055581;28;19916;-90
2022/10/06 00:32:30;;;;;;;;;;;19.80;99.90;;;;;;5054218;28;19908;-90
2022/10/06 00:34:57;;;;;;;;;;;19.80;99.90;;;;;;5054518;28;19920;-90
2022/10/06 00:37:24;;;;;;;;;;;19.80;99.90;;;;;;5055036;28;19959;-91
2022/10/06 00:39:52;;;;;;;;;;;19.80;99.90;;;;;;5054370;28;20123;-91
2022/10/06 00:42:28;;;;;;;;;;;19.80;99.90;;;;;;5054623;28;19919;-91
2022/10/06 00:44:55;;;;;;;;;;;19.80;99.90;;;;;;5055001;28;19908;-90
2022/10/06 00:47:21;;;;;;;;;;;19.80;99.90;;;;;;5054794;28;19921;-91
2022/10/06 00:49:47;;;;;;;;;;;19.80;99.90;;;;;;5055177;28;20003;-90
2022/10/06 00:52:15;;;;;;;;;;;19.80;99.90;;;;;;5057053;28;20162;-91
2022/10/06 00:54:41;;;;;;;;;;;19.80;99.90;;;;;;5055877;28;20277;-91
2022/10/06 00:57:09;;;;;;;;;;;19.80;99.90;;;;;;5055694;28;19920;-91
2022/10/06 00:59:38;;;;;;;;;;;19.70;99.90;;;;;;5055038;28;19917;-90
2022/10/06 01:02:07;;;;;;;;;;;19.70;99.90;;;;;;5053807;28;20007;-90
2022/10/06 01:04:34;;;;;;;;;;;19.70;99.90;;;;;;5055942;28;19909;-90
2022/10/06 01:07:00;;;;;;;;;;;19.70;99.90;;;;;;5054244;28;19909;-91
2022/10/06 01:09:27;;;;;;;;;;;19.70;99.90;;;;;;5054408;28;19917;-90
2022/10/06 01:11:58;;;;;;;;;;;19.70;99.90;;;;;;5054924;28;20335;-90
2022/10/06 01:14:26;;;;;;;;;;;19.70;99.90;;;;;;5070843;28;20308;-90
2022/10/06 01:17:01;;;;;;;;;;;19.70;99.90;;;;;;5054467;28;19967;-90
2022/10/06 01:19:30;;;;;;;;;;;19.70;99.90;;;;;;5054173;28;19913;-90
2022/10/06 01:21:58;;;;;;;;;;;19.60;99.90;;;;;;5053110;28;19913;-91
2022/10/06 01:24:24;;;;;;;;;;;19.70;99.90;;;;;;5054646;28;19909;-92
2022/10/06 01:26:50;;;;;;;;;;;19.60;99.90;;;;;;5053531;28;20226;-90
2022/10/06 01:29:16;;;;;;;;;;;19.60;99.90;;;;;;5054835;28;20289;-90
2022/10/06 01:31:41;;;;;;;;;;;19.70;99.90;;;;;;5054278;28;19920;-90
2022/10/06 01:34:08;;;;;;;;;;;19.60;99.90;;;;;;5055481;28;19920;-91
2022/10/06 01:36:34;;;;;;;;;;;19.60;99.90;;;;;;5053807;28;19908;-90
2022/10/06 01:38:59;;;;;;;;;;;19.60;99.90;;;;;;5054609;28;19917;-91
2022/10/06 01:41:26;;;;;;;;;;;19.60;99.90;;;;;;5070837;28;20015;-90
2022/10/06 01:43:52;;;;;;;;;;;19.60;99.90;;;;;;5053610;28;20305;-91
2022/10/06 01:46:18;;;;;;;;;;;19.50;99.90;;;;;;5053837;28;20063;-90
2022/10/06 01:48:46;;;;;;;;;;;19.60;99.90;;;;;;5053520;28;19913;-89
2022/10/06 01:51:12;;;;;;;;;;;19.50;99.90;;;;;;5053777;28;19908;-90
2022/10/06 01:53:38;;;;;;;;;;;19.50;99.90;;;;;;5053622;28;19909;-90
2022/10/06 01:56:04;;;;;;;;;;;19.50;99.90;;;;;;5070601;28;20296;-90
2022/10/06 01:58:30;;;;;;;;;;;19.50;99.90;;;;;;5054501;28;19909;-90
2022/10/06 02:00:55;;;;;;;;;;;19.50;99.90;;;;;;5053957;28;19919;-90
2022/10/06 02:03:21;;;;;;;;;;;19.50;99.90;;;;;;5053275;28;19952;-90
2022/10/06 02:05:47;;;;;;;;;;;19.50;99.90;;;;;;5054445;28;20011;-90
2022/10/06 02:08:12;;;;;;;;;;;19.50;99.90;;;;;;5053326;28;19909;-90
2022/10/06 02:10:41;;;;;;;;;;;19.50;99.90;;;;;;5054923;28;20221;-90
2022/10/06 02:13:07;;;;;;;;;;;19.40;99.90;;;;;;5053083;28;20003;-91
2022/10/06 02:15:34;;;;;;;;;;;19.40;99.90;;;;;;5055376;28;20007;-91
2022/10/06 02:18:00;;;;;;;;;;;19.40;99.90;;;;;;5054707;28;19920;-91
2022/10/06 02:20:25;;;;;;;;;;;19.40;99.90;;;;;;5054645;28;19912;-91
2022/10/06 02:22:51;;;;;;;;;;;19.40;99.90;;;;;;5054397;28;19986;-91
2022/10/06 02:25:17;;;;;;;;;;;19.40;99.90;;;;;;5054792;28;19911;-92
2022/10/06 02:27:43;;;;;;;;;;;19.40;99.90;;;;;;5054592;28;19909;-92
2022/10/06 02:30:09;;;;;;;;;;;19.40;99.90;;;;;;5054947;28;19932;-91
2022/10/06 02:32:35;;;;;;;;;;;19.40;99.90;;;;;;5054217;28;19909;-92
2022/10/06 02:35:02;;;;;;;;;;;19.30;99.90;;;;;;5052341;28;19984;-92
2022/10/06 02:37:28;;;;;;;;;;;19.30;99.90;;;;;;5052428;28;19909;-91
2022/10/06 02:39:54;;;;;;;;;;;19.40;99.90;;;;;;5054278;28;19913;-91
2022/10/06 02:42:19;;;;;;;;;;;19.40;99.90;;;;;;5053394;28;19913;-92
2022/10/06 02:44:50;;;;;;;;;;;19.30;99.90;;;;;;5052711;28;20306;-91
2022/10/06 02:47:16;;;;;;;;;;;19.30;99.90;;;;;;5052374;28;19917;-91
2022/10/06 02:49:41;;;;;;;;;;;19.30;99.90;;;;;;5054384;28;19931;-90
2022/10/06 02:52:09;;;;;;;;;;;19.30;99.90;;;;;;5052360;28;19963;-90
2022/10/06 02:54:35;;;;;;;;;;;19.30;99.90;;;;;;5051400;28;19909;-90
2022/10/06 02:57:04;;;;;;;;;;;19.30;99.90;;;;;;5050548;28;19962;-91
2022/10/06 02:59:30;;;;;;;;;;;19.30;99.90;;;;;;5052332;28;20366;-91
2022/10/06 03:01:55;;;;;;;;;;;19.20;99.90;;;;;;5052874;28;20027;-90
2022/10/06 03:04:21;;;;;;;;;;;19.30;99.90;;;;;;5052277;28;19912;-91
2022/10/06 03:06:47;;;;;;;;;;;19.30;99.90;;;;;;5053012;28;19928;-91
2022/10/06 03:09:17;;;;;;;;;;;19.20;99.90;;;;;;5053803;28;19909;-92
2022/10/06 03:11:43;;;;;;;;;;;19.30;99.90;;;;;;5053724;28;19999;-90
2022/10/06 03:14:09;;;;;;;;;;;19.30;99.90;;;;;;5054168;28;20107;-90
2022/10/06 03:16:39;;;;;;;;;;;19.20;99.90;;;;;;5053410;28;20019;-91
2022/10/06 03:19:08;;;;;;;;;;;19.20;99.90;;;;;;5055502;28;20232;-90
2022/10/06 03:21:37;;;;;;;;;;;19.20;99.90;;;;;;5056093;28;19924;-91
2022/10/06 03:24:06;;;;;;;;;;;19.20;99.90;;;;;;5056408;28;19920;-90
2022/10/06 03:26:33;;;;;;;;;;;19.20;99.90;;;;;;5054692;28;19956;-90
2022/10/06 03:29:02;;;;;;;;;;;19.20;99.90;;;;;;5054722;28;19908;-90
2022/10/06 03:31:30;;;;;;;;;;;19.20;99.90;;;;;;5055380;28;19909;-91
2022/10/06 03:33:57;;;;;;;;;;;19.20;99.90;;;;;;5056330;28;19915;-90
2022/10/06 03:36:24;;;;;;;;;;;19.20;99.90;;;;;;5055431;28;19909;-90
2022/10/06 03:38:49;;;;;;;;;;;19.20;99.90;;;;;;5055986;28;19948;-90
2022/10/06 03:41:15;;;;;;;;;;;19.20;99.90;;;;;;5056333;28;19945;-91
2022/10/06 03:43:47;;;;;;;;;;;19.20;99.90;;;;;;5055171;28;20254;-90
2022/10/06 03:46:32;;;;;;;;;;;19.10;99.90;;;;;;5054680;28;20151;-91
2022/10/06 03:48:58;;;;;;;;;;;19.10;99.90;;;;;;5054383;28;19909;-91
2022/10/06 03:51:47;;;;;;;;;;;19.10;99.90;;;;;;5055305;28;19920;-90
2022/10/06 03:54:13;;;;;;;;;;;19.10;99.90;;;;;;5054159;28;19909;-90
2022/10/06 03:56:40;;;;;;;;;;;19.10;99.90;;;;;;5054571;28;19915;-92
2022/10/06 03:59:07;;;;;;;;;;;19.10;99.90;;;;;;5071453;28;19912;-91
2022/10/06 04:01:37;;;;;;;;;;;19.10;99.90;;;;;;5054630;28;20286;-91
2022/10/06 04:04:05;;;;;;;;;;;19.10;99.90;;;;;;5055626;28;19920;-91
2022/10/06 04:06:32;;;;;;;;;;;19.10;99.90;;;;;;5054468;28;19967;-91
2022/10/06 04:08:58;;;;;;;;;;;19.10;99.90;;;;;;5070114;28;19909;-92
2022/10/06 04:11:25;;;;;;;;;;;19.00;99.90;;;;;;5052457;28;20274;-91
2022/10/06 04:13:52;;;;;;;;;;;19.00;99.90;;;;;;5053506;28;20041;-91
2022/10/06 04:16:22;;;;;;;;;;;19.10;99.90;;;;;;5053528;28;20159;-91
2022/10/06 04:18:49;;;;;;;;;;;19.00;99.90;;;;;;5054527;28;19913;-91
2022/10/06 04:21:21;;;;;;;;;;;19.00;99.90;;;;;;5052495;28;19920;-91
2022/10/06 04:23:46;;;;;;;;;;;19.00;99.90;;;;;;5052434;28;19920;-91
2022/10/06 04:26:17;;;;;;;;;;;19.00;99.90;;;;;;5051117;28;19908;-91
2022/10/06 04:28:43;;;;;;;;;;;19.00;99.90;;;;;;5052564;28;19905;-91
2022/10/06 04:31:14;;;;;;;;;;;19.00;99.90;;;;;;5050887;28;20003;-91
2022/10/06 04:33:40;;;;;;;;;;;19.00;99.90;;;;;;5051647;28;19909;-91
2022/10/06 04:36:11;;;;;;;;;;;19.00;99.90;;;;;;5049583;28;19908;-92
2022/10/06 04:38:37;;;;;;;;;;;19.00;99.90;;;;;;5050602;28;19917;-92
2022/10/06 04:41:07;;;;;;;;;;;19.00;99.90;;;;;;5051748;28;20175;-91
2022/10/06 04:43:33;;;;;;;;;;;19.00;99.90;;;;;;5050865;28;19916;-91
2022/10/06 04:45:59;;;;;;;;;;;19.00;99.90;;;;;;5052212;28;19959;-92
2022/10/06 04:48:25;;;;;;;;;;;19.00;99.90;;;;;;5051616;28;19944;-91
2022/10/06 04:50:58;;;;;;;;;;;19.00;99.90;;;;;;5068615;28;20013;-92
2022/10/06 04:53:23;;;;;;;;;;;19.00;99.90;;;;;;5052018;28;19928;-91
2022/10/06 04:56:09;;;;;;;;;;;18.90;99.90;;;;;;5051421;28;19909;-92
2022/10/06 04:58:36;;;;;;;;;;;18.90;99.90;;;;;;5050370;28;19916;-91
2022/10/06 05:01:19;;;;;;;;;;;18.90;99.90;;;;;;5052670;28;19913;-92
2022/10/06 05:03:45;;;;;;;;;;;18.90;99.90;;;;;;5053515;28;19908;-92
2022/10/06 05:06:15;;;;;;;;;;;18.90;99.90;;;;;;5053236;28;19917;-91
2022/10/06 05:08:58;;;;;;;;;;;18.90;99.90;;;;;;5051087;28;19936;-92
2022/10/06 05:11:28;;;;;;;;;;;18.90;99.90;;;;;;5050086;28;20012;-92
2022/10/06 05:13:54;;;;;;;;;;;18.90;99.90;;;;;;5050327;28;19971;-91
2022/10/06 05:16:20;;;;;;;;;;;18.90;99.90;;;;;;5050433;28;19909;-91
2022/10/06 05:18:49;;;;;;;;;;;18.90;99.90;;;;;;5052123;28;19974;-92
2022/10/06 05:21:19;;;;;;;;;;;18.90;99.90;;;;;;5051518;28;19913;-92
2022/10/06 05:23:45;;;;;;;;;;;18.90;99.90;;;;;;5049510;28;20182;-92
2022/10/06 05:26:12;;;;;;;;;;;18.90;99.90;;;;;;5048378;28;19909;-92
2022/10/06 05:28:38;;;;;;;;;;;18.90;99.90;;;;;;5048800;28;19908;-91
2022/10/06 05:31:08;;;;;;;;;;;18.90;99.90;;;;;;5047952;28;19909;-92
2022/10/06 05:33:34;;;;;;;;;;;18.80;99.90;;;;;;5065047;28;19916;-92
2022/10/06 05:36:01;;;;;;;;;;;18.80;99.90;;;;;;5048550;28;19908;-92
2022/10/06 05:38:30;;;;;;;;;;;18.80;99.90;;;;;;5048698;28;19940;-91
2022/10/06 05:41:01;;;;;;;;;;;18.80;99.90;;;;;;5048879;28;19947;-92
2022/10/06 05:43:27;;;;;;;;;;;18.80;99.90;;;;;;5049248;28;20304;-92
2022/10/06 05:45:57;;;;;;;;;;;18.80;99.90;;;;;;5050305;28;20285;-92
2022/10/06 05:48:26;;;;;;;;;;;18.80;99.90;;;;;;5051117;28;19909;-92
2022/10/06 05:51:05;;;;;;;;;;;18.80;99.90;;;;;;5048929;28;19942;-92
2022/10/06 05:53:32;;;;;;;;;;;18.80;99.90;;;;;;5049203;28;20182;-92
2022/10/06 05:56:05;;;;;;;;;;;18.80;99.90;;;;;;5050188;28;19916;-92
2022/10/06 05:58:31;;;;;;;;;;;18.80;99.90;;;;;;5048743;28;19916;-92
2022/10/06 06:01:04;;;;;;;;;;;18.80;99.90;;;;;;5048180;28;19913;-92
2022/10/06 06:03:30;;;;;;;;;;;18.80;99.90;;;;;;5047907;28;20087;-92
2022/10/06 06:05:56;;;;;;;;;;;18.80;99.90;;;;;;5048943;28;20098;-92
2022/10/06 06:08:21;;;;;;;;;;;18.90;99.90;;;;;;5048897;28;19975;-91
2022/10/06 06:10:47;;;;;;;;;;;18.90;99.90;;;;;;5047875;28;20156;-91
2022/10/06 06:13:19;;;;;;;;;;;18.90;99.90;;;;;;5046598;28;19923;-91
2022/10/06 06:16:00;;;;;;;;;;;18.90;99.90;;;;;;5047865;28;19986;-91
2022/10/06 06:18:26;;;;;;;;;;;19.00;99.90;;;;;;5046589;28;19920;-91
2022/10/06 06:20:59;;;;;;;;;;;19.00;99.90;;;;;;5048172;28;20195;-91
2022/10/06 06:23:35;;;;;;;;;;;19.10;99.90;;;;;;5047768;28;19909;-91
2022/10/06 06:26:01;;;;;;;;;;;19.20;99.90;;;;;;5048368;28;19912;-92
2022/10/06 06:28:31;;;;;;;;;;;19.80;99.10;;;;;;5046508;28;19951;-91
2022/10/06 06:31:13;;;;;;;;;;;20.30;97.60;;;;;;5046956;28;19998;-91
2022/10/06 06:33:40;;;;;;;;;;;20.80;96.20;;;;;;5063641;28;19919;-91
2022/10/06 06:36:24;;;;;;;;;;;21.00;95.00;;;;;;5048081;28;19948;-91
2022/10/06 06:38:50;;;;;;;;;;;21.10;94.70;;;;;;5046611;28;19994;-91
2022/10/06 06:41:29;;;;;;;;;;;21.20;94.20;;;;;;5046807;28;19917;-92
2022/10/06 06:43:55;;;;;;;;;;;21.30;93.90;;;;;;5046290;28;20060;-91
2022/10/06 06:46:23;;;;;;;;;;;21.80;93.00;;;;;;5047467;28;19909;-91
2022/10/06 06:48:49;;;;;;;;;;;22.30;91.30;;;;;;5064685;28;19909;-92
2022/10/06 06:51:15;;;;;;;;;;;22.70;89.90;;;;;;5047456;28;20023;-91
2022/10/06 06:53:41;;;;;;;;;;;22.90;88.20;;;;;;5044442;28;19936;-91
2022/10/06 06:56:07;;;;;;;;;;;23.10;86.00;;;;;;5045792;28;19979;-91
2022/10/06 06:58:33;;;;;;;;;;;23.10;85.00;;;;;;5044236;28;20308;-91
2022/10/06 07:01:03;;;;;;;;;;;23.30;84.00;;;;;;5045205;28;20011;-91
2022/10/06 07:03:28;;;;;;;;;;;23.50;81.90;;;;;;5045262;28;20335;-91
2022/10/06 07:06:19;;;;;;;;;;;24.00;79.10;;;;;;5043932;28;19916;-91
2022/10/06 07:08:45;;;;;;;;;;;24.40;76.10;;;;;;5045566;28;20308;-91
2022/10/06 07:11:18;;;;;;;;;;;24.80;73.40;;;;;;5047429;28;20209;-91
2022/10/06 07:13:44;;;;;;;;;;;25.20;70.00;;;;;;5045183;28;20321;-91
2022/10/06 07:27:07;;;;;;;;;;;26.60;60.80;;;;;;5047225;28;19939;-92
2022/10/06 07:29:33;;;;;;;;;;;26.80;59.80;;;;;;5044812;28;20298;-92
2022/10/06 07:31:59;;;;;;;;;;;27.10;59.60;;;;;;5061833;28;20242;-92
2022/10/06 07:34:25;;;;;;;;;;;27.20;58.60;;;;;;5046781;28;19916;-92
2022/10/06 07:36:52;;;;;;;;;;;27.40;58.20;;;;;;5047766;28;19969;-92
2022/10/06 07:39:21;;;;;;;;;;;27.50;57.70;;;;;;5047510;28;19944;-92
2022/10/06 07:41:50;;;;;;;;;;;27.70;57.30;;;;;;5046334;28;20193;-91
2022/10/06 07:44:16;;;;;;;;;;;27.90;57.00;;;;;;5048300;28;20360;-92
2022/10/06 07:46:42;;;;;;;;;;;28.10;56.50;;;;;;5048800;28;19971;-92
2022/10/06 07:49:08;;;;;;;;;;;28.30;56.20;;;;;;5047399;28;19919;-92
2022/10/06 07:51:34;;;;;;;;;;;28.40;55.70;;;;;;5047933;28;19909;-92
2022/10/06 07:54:01;;;;;;;;;;;28.60;55.20;;;;;;5047008;28;19920;-92
2022/10/06 07:56:30;;;;;;;;;;;28.70;55.00;;;;;;5046363;28;19908;-92
2022/10/06 07:58:57;;;;;;;;;;;28.90;54.70;;;;;;5063242;28;19909;-89
2022/10/06 08:01:25;;;;;;;;;;;29.00;54.20;;;;;;5048320;28;19974;-90
2022/10/06 08:03:51;;;;;;;;;;;29.20;53.90;;;;;;5047073;28;19935;-90
2022/10/06 08:06:18;;;;;;;;;;;29.30;53.70;;;;;;5050867;28;20185;-89
2022/10/06 08:08:44;;;;;;;;;;;29.40;53.40;;;;;;5049734;28;19966;-90
2022/10/06 08:11:13;;;;;;;;;;;29.50;53.10;;;;;;5053811;28;19920;-90
2022/10/06 08:13:43;;;;;;;;;;;29.60;52.90;;;;;;5050296;28;19909;-90
2022/10/06 08:16:10;;;;;;;;;;;29.70;52.50;;;;;;5046709;28;20166;-90
2022/10/06 08:18:36;;;;;;;;;;;29.80;52.30;;;;;;5050436;28;19909;-90
2022/10/06 08:21:19;;;;;;;;;;;29.90;52.00;;;;;;5048922;28;19912;-90
2022/10/06 08:23:45;;;;;;;;;;;30.10;51.80;;;;;;5051889;28;19909;-89
2022/10/06 08:26:15;;;;;;;;;;;30.30;51.40;;;;;;5065388;28;19948;-89
2022/10/06 08:28:48;;;;;;;;;;;30.50;51.10;;;;;;5048007;28;19909;-90
2022/10/06 08:31:15;;;;;;;;;;;30.60;50.70;;;;;;5049985;28;20080;-90
2022/10/06 08:33:41;;;;;;;;;;;30.80;51.00;;;;;;5047251;28;19915;-89
2022/10/06 08:36:08;;;;;;;;;;;30.90;50.20;;;;;;5048561;28;20290;-89
2022/10/06 08:38:37;;;;;;;;;;;31.00;50.10;;;;;;5047973;28;19940;-89
2022/10/06 08:41:18;;;;;;;;;;;31.10;49.90;;;;;;5046288;28;20325;-90
2022/10/06 08:44:05;;;;;;;;;;;31.20;49.60;;;;;;5046568;28;19931;-89
2022/10/06 08:46:38;;;;;;;;;;;31.30;49.40;;;;;;5047202;28;19908;-90
2022/10/06 08:49:07;;;;;;;;;;;31.40;49.20;;;;;;5048246;28;19923;-90
2022/10/06 08:51:36;;;;;;;;;;;31.50;49.10;;;;;;5047487;28;20135;-89
2022/10/06 08:54:16;;;;;;;;;;;31.60;49.00;;;;;;5047697;28;19913;-90
2022/10/06 08:57:17;;;;;;;;;;;31.60;48.70;;;;;;5049453;28;19915;-90
2022/10/06 08:59:45;;;;;;;;;;;31.70;48.60;;;;;;5044239;28;19947;-89
2022/10/06 09:02:24;;;;;;;;;;;31.60;48.50;;;;;;5043941;28;19956;-91
2022/10/06 09:04:50;;;;;;;;;;;31.10;48.60;;;;;;5048606;28;19970;-90
2022/10/06 09:07:23;;;;;;;;;;;31.40;48.90;;;;;;5047855;28;19908;-91
2022/10/06 09:10:09;;;;;;;;;;;31.50;48.70;;;;;;5048227;28;20183;-90
2022/10/06 09:12:39;;;;;;;;;;;31.20;48.50;;;;;;5047783;28;19909;-90
2022/10/06 09:15:28;;;;;;;;;;;31.30;48.70;;;;;;5046651;28;19970;-90
2022/10/06 09:17:56;;;;;;;;;;;30.50;48.80;;;;;;5045318;28;20222;-91
2022/10/06 09:20:33;;;;;;;;;;;29.70;49.20;;;;;;5045364;28;19916;-90
2022/10/06 09:23:03;;;;;;;;;;;30.40;49.60;;;;;;5045436;28;19909;-90
2022/10/06 09:25:32;;;;;;;;;;;29.50;49.50;;;;;;5048133;28;20366;-91
2022/10/06 09:27:58;;;;;;;;;;;30.00;50.00;;;;;;5047316;28;19917;-91
2022/10/06 09:30:24;;;;;;;;;;;30.40;49.50;;;;;;5049943;28;20057;-91
2022/10/06 09:33:03;;;;;;;;;;;29.70;49.90;;;;;;5048210;28;19916;-92
2022/10/06 09:35:30;;;;;;;;;;;30.10;49.70;;;;;;5047691;28;20000;-92
2022/10/06 09:37:57;;;;;;;;;;;30.40;49.30;;;;;;5046752;28;20074;-91
2022/10/06 09:40:38;;;;;;;;;;;29.40;49.20;;;;;;5051048;28;19909;-92
2022/10/06 09:43:05;;;;;;;;;;;28.70;50.20;;;;;;5046063;28;19913;-91
2022/10/06 09:45:34;;;;;;;;;;;28.00;50.80;;;;;;5047346;28;19909;-91
2022/10/06 09:48:19;;;;;;;;;;;27.60;51.30;;;;;;5046293;28;20009;-91
2022/10/06 09:51:05;;;;;;;;;;;27.20;51.70;;;;;;5046102;28;19916;-91
2022/10/06 09:53:30;;;;;;;;;;;26.80;52.40;;;;;;5045561;28;20317;-91
2022/10/06 09:55:56;;;;;;;;;;;26.40;53.00;;;;;;5044495;28;19909;-90
2022/10/06 09:58:33;;;;;;;;;;;26.10;53.60;;;;;;5061484;28;19909;-91
2022/10/06 10:01:06;;;;;;;;;;;25.80;54.20;;;;;;5044521;28;20007;-90
2022/10/06 10:03:49;;;;;;;;;;;25.60;54.90;;;;;;5046879;28;20120;-92
2022/10/06 10:06:40;;;;;;;;;;;25.50;55.40;;;;;;5046173;28;19909;-92
2022/10/06 10:09:18;;;;;;;;;;;25.20;56.10;;;;;;5043194;28;19916;-91
2022/10/06 10:14:38;;;;;;;;;;;24.90;57.40;;;;;;5045987;28;19928;-91
2022/10/06 10:17:16;;;;;;;;;;;24.70;58.10;;;;;;5062540;28;20006;-92
2022/10/06 10:19:43;;;;;;;;;;;24.50;58.80;;;;;;5046605;28;19919;-91
2022/10/06 10:22:29;;;;;;;;;;;24.40;59.40;;;;;;5043342;28;20068;-91
2022/10/06 10:25:00;;;;;;;;;;;24.20;60.30;;;;;;5043654;28;19909;-91
2022/10/06 10:27:45;;;;;;;;;;;24.10;61.60;;;;;;5043512;28;19916;-91
2022/10/06 10:30:13;;;;;;;;;;;23.90;63.30;;;;;;5053028;28;19956;-91
2022/10/06 10:32:39;;;;;;;;;;;23.90;63.70;;;;;;5028328;28;20043;-91
2022/10/06 10:35:18;;;;;;;;;;;23.70;64.70;;;;;;5024511;28;19913;-91
2022/10/06 10:37:50;;;;;;;;;;;23.60;65.30;;;;;;5026222;28;20091;-90
2022/10/06 10:40:22;;;;;;;;;;;23.50;66.20;;;;;;5025481;28;20020;-90
2022/10/06 10:43:09;;;;;;;;;;;23.50;67.10;;;;;;5023865;28;20263;-91
2022/10/06 10:45:38;;;;;;;;;;;23.40;68.20;;;;;;5024509;28;20000;-90
2022/10/06 10:48:10;;;;;;;;;;;23.30;68.90;;;;;;5026092;28;20219;-90
2022/10/06 10:50:55;;;;;;;;;;;23.20;69.20;;;;;;5026224;28;20316;-90
2022/10/06 10:53:28;;;;;;;;;;;23.20;69.80;;;;;;5025454;28;19920;-89
2022/10/06 10:55:56;;;;;;;;;;;23.10;70.40;;;;;;5025306;28;20140;-90
2022/10/06 10:58:38;;;;;;;;;;;23.00;71.10;;;;;;5022278;28;19940;-90
2022/10/06 11:01:07;;;;;;;;;;;23.00;71.50;;;;;;5025067;28;19990;-90
2022/10/06 11:03:36;;;;;;;;;;;23.00;72.20;;;;;;5023351;28;19909;-91
2022/10/06 11:06:17;;;;;;;;;;;22.90;72.40;;;;;;5021632;28;20080;-90
2022/10/06 11:08:57;;;;;;;;;;;22.80;73.00;;;;;;5024409;28;19909;-91
2022/10/06 11:11:41;;;;;;;;;;;22.80;73.50;;;;;;5020165;28;19910;-91
2022/10/06 11:14:15;;;;;;;;;;;22.70;74.00;;;;;;5038528;28;19914;-90
2022/10/06 11:16:48;;;;;;;;;;;22.70;74.60;;;;;;5021524;28;19913;-89
2022/10/06 11:19:34;;;;;;;;;;;22.60;75.20;;;;;;5022410;28;19920;-90
2022/10/06 11:22:05;;;;;;;;;;;22.60;75.50;;;;;;5020420;28;19925;-89
2022/10/06 11:24:31;;;;;;;;;;;22.50;75.90;;;;;;5020334;28;19909;-90
2022/10/06 11:27:11;;;;;;;;;;;22.50;76.40;;;;;;5024078;28;20042;-88
2022/10/06 11:29:56;;;;;;;;;;;22.50;76.60;;;;;;5023723;28;19909;-90
2022/10/06 11:32:40;;;;;;;;;;;22.40;76.60;;;;;;5021199;28;19909;-89
2022/10/06 11:35:35;;;;;;;;;;;22.50;77.50;;;;;;5021798;28;19909;-90
2022/10/06 11:38:11;;;;;;;;;;;22.40;77.60;;;;;;5022008;28;19916;-89
2022/10/06 11:40:55;;;;;;;;;;;22.40;77.80;;;;;;5024482;28;20081;-89
2022/10/06 11:43:28;;;;;;;;;;;22.40;78.10;;;;;;5026630;28;19916;-91
2022/10/06 11:46:12;;;;;;;;;;;22.40;78.20;;;;;;5026131;28;19921;-89
2022/10/06 11:48:38;;;;;;;;;;;22.30;78.30;;;;;;5026108;28;19910;-89
2022/10/06 11:51:22;;;;;;;;;;;22.30;78.40;;;;;;5025353;28;19913;-90
2022/10/06 11:53:48;;;;;;;;;;;22.30;78.90;;;;;;5027009;28;19909;-89
2022/10/06 11:56:17;;;;;;;;;;;22.30;78.80;;;;;;5025815;28;19925;-89
2022/10/06 11:58:54;;;;;;;;;;;22.30;79.80;;;;;;5026082;28;19974;-89
2022/10/06 12:01:29;;;;;;;;;;;22.20;79.00;;;;;;5026432;28;19913;-89
2022/10/06 12:04:15;;;;;;;;;;;22.30;78.20;;;;;;5027049;28;19910;-89
2022/10/06 12:06:40;;;;;;;;;;;22.20;78.30;;;;;;5025619;28;19951;-89
2022/10/06 12:09:33;;;;;;;;;;;22.20;77.90;;;;;;5025915;28;20262;-90
2022/10/06 12:12:13;;;;;;;;;;;22.20;77.90;;;;;;5024947;28;20382;-89
2022/10/06 12:14:53;;;;;;;;;;;22.20;78.10;;;;;;5024897;28;19917;-89
2022/10/06 12:17:40;;;;;;;;;;;22.20;77.80;;;;;;5025463;28;19909;-89
2022/10/06 12:20:17;;;;;;;;;;;22.10;77.80;;;;;;5026754;28;19909;-88
2022/10/06 12:22:42;;;;;;;;;;;22.10;77.20;;;;;;5025026;28;20168;-88
2022/10/06 12:25:11;;;;;;;;;;;22.10;78.00;;;;;;5023209;28;19909;-89
2022/10/06 12:27:55;;;;;;;;;;;22.10;78.00;;;;;;5031651;28;19967;-88
2022/10/06 12:30:40;;;;;;;;;;;22.00;78.50;;;;;;5053085;28;19909;-89
2022/10/06 12:33:14;;;;;;;;;;;22.00;78.70;;;;;;5050860;28;20189;-89
2022/10/06 12:35:43;;;;;;;;;;;22.00;78.90;;;;;;5046375;28;19909;-88
2022/10/06 12:38:27;;;;;;;;;;;22.00;79.40;;;;;;5046425;28;20274;-89
2022/10/06 12:40:54;;;;;;;;;;;22.00;79.50;;;;;;5044830;28;20009;-88
2022/10/06 12:43:23;;;;;;;;;;;22.00;79.90;;;;;;5044091;28;19919;-89
2022/10/06 12:46:10;;;;;;;;;;;21.90;79.90;;;;;;5044792;28;19956;-89
2022/10/06 12:48:50;;;;;;;;;;;21.90;80.00;;;;;;5045169;28;19966;-89
2022/10/06 12:51:21;;;;;;;;;;;21.90;80.20;;;;;;5047563;28;19939;-92
2022/10/06 12:54:18;;;;;;;;;;;21.90;80.10;;;;;;5044963;28;20245;-92
2022/10/06 12:56:57;;;;;;;;;;;21.90;80.10;;;;;;5046837;28;20178;-92
2022/10/06 12:59:23;;;;;;;;;;;21.80;79.70;;;;;;5047249;28;19912;-91
2022/10/06 13:01:50;;;;;;;;;;;21.80;80.40;;;;;;5044577;28;19984;-92
2022/10/06 13:04:33;;;;;;;;;;;21.80;80.70;;;;;;5045877;28;19920;-92
2022/10/06 13:07:01;;;;;;;;;;;21.80;81.20;;;;;;5046346;28;20017;-91
2022/10/06 13:09:26;;;;;;;;;;;21.80;81.50;;;;;;5045689;28;19915;-92
2022/10/06 13:11:53;;;;;;;;;;;21.80;81.60;;;;;;5048574;28;19909;-91
2022/10/06 13:14:18;;;;;;;;;;;21.70;81.80;;;;;;5047258;28;19917;-91
2022/10/06 13:16:48;;;;;;;;;;;21.70;81.80;;;;;;5046980;28;19974;-92
2022/10/06 13:19:21;;;;;;;;;;;21.70;82.30;;;;;;5046925;28;20233;-92
2022/10/06 13:21:47;;;;;;;;;;;21.70;82.80;;;;;;5046917;28;19913;-89
2022/10/06 13:24:13;;;;;;;;;;;21.70;83.10;;;;;;5046352;28;19909;-89
2022/10/06 13:26:42;;;;;;;;;;;21.70;83.20;;;;;;5045206;28;19919;-89
2022/10/06 13:29:15;;;;;;;;;;;21.70;83.40;;;;;;5043164;28;20030;-89
2022/10/06 13:31:47;;;;;;;;;;;21.70;83.60;;;;;;5041906;28;20035;-90
2022/10/06 13:34:17;;;;;;;;;;;21.70;83.80;;;;;;5043998;28;19909;-89
2022/10/06 13:36:52;;;;;;;;;;;21.60;83.80;;;;;;5043349;28;19908;-90
2022/10/06 13:39:30;;;;;;;;;;;21.60;84.10;;;;;;5042464;28;20024;-90
2022/10/06 13:42:09;;;;;;;;;;;21.60;84.40;;;;;;5041496;28;19913;-89
2022/10/06 13:44:36;;;;;;;;;;;21.60;84.60;;;;;;5039703;28;20335;-90
2022/10/06 13:47:18;;;;;;;;;;;21.60;84.90;;;;;;5042045;28;20133;-89
2022/10/06 13:50:02;;;;;;;;;;;21.60;85.10;;;;;;5038942;28;19981;-90
2022/10/06 13:52:33;;;;;;;;;;;21.50;85.20;;;;;;5039433;28;20012;-90
2022/10/06 13:54:59;;;;;;;;;;;21.50;85.40;;;;;;5039688;28;20230;-88
2022/10/06 13:57:32;;;;;;;;;;;21.50;85.60;;;;;;5043818;28;19975;-87
2022/10/06 14:00:06;;;;;;;;;;;21.50;85.90;;;;;;5059708;28;20164;-88
2022/10/06 14:02:35;;;;;;;;;;;21.50;86.10;;;;;;5042554;28;19913;-88
2022/10/06 14:05:19;;;;;;;;;;;21.50;86.40;;;;;;5041915;28;19912;-88
2022/10/06 14:07:46;;;;;;;;;;;21.50;86.60;;;;;;5041709;28;20294;-89
2022/10/06 14:10:19;;;;;;;;;;;21.50;86.80;;;;;;5042176;28;19977;-89
2022/10/06 14:12:46;;;;;;;;;;;21.50;87.00;;;;;;5043776;28;20060;-89
2022/10/06 14:15:16;;;;;;;;;;;21.40;87.10;;;;;;5044211;28;19920;-87
2022/10/06 14:17:41;;;;;;;;;;;21.40;87.40;;;;;;5041129;28;20045;-90
2022/10/06 14:20:28;;;;;;;;;;;21.40;87.60;;;;;;5040416;28;20355;-89
2022/10/06 14:22:54;;;;;;;;;;;21.40;87.80;;;;;;5047222;28;20088;-89
2022/10/06 14:25:21;;;;;;;;;;;21.40;88.00;;;;;;5046251;28;20174;-90
2022/10/06 14:27:47;;;;;;;;;;;21.40;88.20;;;;;;5042519;28;20393;-89
2022/10/06 14:30:12;;;;;;;;;;;21.40;88.40;;;;;;5043893;28;20019;-89
2022/10/06 14:32:39;;;;;;;;;;;21.40;88.50;;;;;;5044501;28;19913;-90
2022/10/06 14:35:08;;;;;;;;;;;21.40;88.80;;;;;;5042487;28;19913;-90
2022/10/06 14:37:34;;;;;;;;;;;21.40;89.00;;;;;;5041190;28;19975;-90
2022/10/06 14:39:59;;;;;;;;;;;21.40;89.20;;;;;;5042359;28;19909;-90
2022/10/06 14:42:25;;;;;;;;;;;21.40;89.30;;;;;;5043861;28;20032;-90
2022/10/06 14:44:51;;;;;;;;;;;21.30;89.50;;;;;;5044048;28;20131;-90
2022/10/06 14:47:16;;;;;;;;;;;21.40;89.70;;;;;;5043710;28;20110;-90
2022/10/06 14:49:43;;;;;;;;;;;21.30;89.80;;;;;;5057959;28;19974;-90